Time;durP1;ratioP1;P1;durP2;ratioP2;P2;SDS_P1;SDS_P2;PMS_P1;PMS_P2;Temp;Humidity;BMP_temperature;BMP_pressure;BME280_temperature;BME280_humidity;BME280_pressure;Samples;Min_cycle;Max_cycle;Signal;HPM_P1;HPM_P2
2022/05/15 00:00:59;;;;;;;12.30;5.60;;;15.20;66.40;;;;;;5054555;28;20422;-74
2022/05/15 00:03:25;;;;;;;10.37;6.30;;;15.30;69.10;;;;;;5056805;28;20424;-74
2022/05/15 00:05:57;;;;;;;6.27;4.80;;;15.30;70.10;;;;;;5056798;28;20489;-75
2022/05/15 00:08:23;;;;;;;12.10;5.53;;;15.20;70.50;;;;;;5056898;28;20411;-74
2022/05/15 00:10:50;;;;;;;7.70;5.40;;;15.00;71.00;;;;;;5055207;28;20487;-75
2022/05/15 00:13:16;;;;;;;8.50;5.63;;;15.00;71.80;;;;;;5057398;28;20466;-75
2022/05/15 00:15:43;;;;;;;6.77;4.90;;;14.90;72.10;;;;;;5056666;28;20435;-75
2022/05/15 00:18:09;;;;;;;13.50;6.27;;;14.80;72.40;;;;;;5055006;28;20597;-74
2022/05/15 00:20:36;;;;;;;7.00;5.33;;;14.70;72.60;;;;;;5049845;28;20941;-74
2022/05/15 00:23:03;;;;;;;8.20;5.20;;;14.60;73.20;;;;;;5055611;28;20450;-75
2022/05/15 00:25:29;;;;;;;11.43;5.33;;;14.60;73.20;;;;;;5056199;28;20466;-75
2022/05/15 00:27:55;;;;;;;6.53;4.50;;;14.60;73.20;;;;;;5056770;28;20420;-76
2022/05/15 00:30:21;;;;;;;9.13;5.10;;;14.60;70.70;;;;;;5055998;28;20415;-76
2022/05/15 00:32:48;;;;;;;13.57;5.57;;;14.60;70.80;;;;;;5056621;28;20964;-73
2022/05/15 00:35:14;;;;;;;12.90;5.10;;;14.60;72.60;;;;;;5055534;28;20427;-74
2022/05/15 00:37:40;;;;;;;8.90;5.13;;;14.60;72.60;;;;;;5057306;28;21158;-76
2022/05/15 00:40:08;;;;;;;8.50;5.33;;;14.40;73.20;;;;;;5052479;28;20462;-73
2022/05/15 00:42:34;;;;;;;8.67;4.77;;;14.50;73.30;;;;;;5050297;28;20687;-75
2022/05/15 00:44:59;;;;;;;7.40;5.73;;;14.40;73.50;;;;;;5051499;28;20654;-75
2022/05/15 00:47:25;;;;;;;7.80;5.03;;;14.40;73.70;;;;;;5051372;28;20442;-74
2022/05/15 00:49:53;;;;;;;8.33;5.30;;;14.40;73.60;;;;;;5055801;28;20185;-75
2022/05/15 00:52:25;;;;;;;7.80;4.93;;;14.30;73.90;;;;;;5054196;28;20276;-75
2022/05/15 00:55:02;;;;;;;8.10;5.00;;;14.30;73.70;;;;;;5048081;28;20450;-75
2022/05/15 00:57:50;;;;;;;6.50;4.63;;;14.30;74.30;;;;;;5046135;28;20491;-76
2022/05/15 01:00:26;;;;;;;6.73;4.80;;;14.20;74.80;;;;;;5052608;28;20419;-74
2022/05/15 01:03:00;;;;;;;8.43;4.30;;;14.20;74.60;;;;;;5051356;28;20477;-75
2022/05/15 01:05:26;;;;;;;7.67;5.17;;;14.20;74.60;;;;;;5044168;28;20744;-74
2022/05/15 01:07:52;;;;;;;6.90;4.67;;;14.10;75.10;;;;;;5052863;28;20418;-75
2022/05/15 01:10:18;;;;;;;7.07;4.93;;;14.10;75.40;;;;;;5052974;28;20441;-74
2022/05/15 01:12:44;;;;;;;6.90;4.77;;;14.00;75.70;;;;;;5052405;28;20501;-74
2022/05/15 01:15:18;;;;;;;8.40;4.17;;;14.00;76.10;;;;;;5054204;28;20435;-74
2022/05/15 01:17:44;;;;;;;8.77;5.10;;;14.00;76.10;;;;;;5052812;28;20426;-75
2022/05/15 01:20:14;;;;;;;6.60;4.70;;;14.00;75.90;;;;;;5046593;28;20436;-74
2022/05/15 01:22:40;;;;;;;6.77;5.00;;;13.90;76.20;;;;;;5054523;28;20296;-75
2022/05/15 01:25:16;;;;;;;7.67;4.90;;;13.90;76.50;;;;;;5050911;28;20574;-75
2022/05/15 01:28:16;;;;;;;7.37;4.90;;;13.90;76.40;;;;;;5050430;28;20184;-74
2022/05/15 01:30:45;;;;;;;6.03;4.30;;;13.80;76.50;;;;;;5009495;28;20507;-74
2022/05/15 01:33:10;;;;;;;7.00;4.47;;;13.70;76.70;;;;;;4994647;28;20451;-73
2022/05/15 01:35:37;;;;;;;5.63;4.13;;;13.70;76.50;;;;;;5011117;28;20429;-75
2022/05/15 01:38:04;;;;;;;7.57;4.30;;;13.70;75.80;;;;;;5012169;28;20197;-72
2022/05/15 01:40:30;;;;;;;7.80;4.50;;;13.70;75.40;;;;;;5011652;28;20425;-75
2022/05/15 01:42:56;;;;;;;7.03;4.10;;;13.70;75.20;;;;;;4995816;28;20536;-75
2022/05/15 01:45:22;;;;;;;6.87;4.67;;;13.70;74.60;;;;;;5013011;28;20887;-74
2022/05/15 01:47:49;;;;;;;10.63;5.27;;;13.70;74.20;;;;;;5011086;28;20912;-76
2022/05/15 01:50:15;;;;;;;6.30;3.77;;;13.60;74.00;;;;;;5011187;28;20213;-76
2022/05/15 01:52:41;;;;;;;7.27;4.20;;;13.60;74.30;;;;;;5014331;28;20436;-76
2022/05/15 01:55:08;;;;;;;4.80;3.70;;;13.70;74.30;;;;;;5003969;28;20198;-75
2022/05/15 01:57:33;;;;;;;7.70;4.00;;;13.80;72.60;;;;;;5008384;28;20422;-75
2022/05/15 01:59:59;;;;;;;5.97;3.47;;;13.80;71.60;;;;;;5007725;28;20417;-76
2022/05/15 02:02:25;;;;;;;8.10;4.27;;;13.80;72.00;;;;;;5008069;28;20738;-73
2022/05/15 02:04:51;;;;;;;8.10;4.47;;;13.80;72.60;;;;;;5008909;28;20284;-74
2022/05/15 02:07:17;;;;;;;5.53;4.20;;;13.80;72.70;;;;;;5031185;28;20211;-74
2022/05/15 02:09:43;;;;;;;6.40;3.70;;;13.80;72.30;;;;;;5051594;28;20173;-75
2022/05/15 02:12:10;;;;;;;8.63;3.87;;;13.80;72.00;;;;;;5050213;28;20435;-73
2022/05/15 02:14:35;;;;;;;9.40;3.80;;;13.80;71.30;;;;;;5051498;28;20648;-75
2022/05/15 02:17:01;;;;;;;6.03;3.00;;;13.70;71.70;;;;;;5050401;28;20423;-74
2022/05/15 02:19:27;;;;;;;5.23;3.37;;;13.70;71.70;;;;;;5058550;28;20645;-76
2022/05/15 02:21:53;;;;;;;6.83;3.37;;;13.70;71.70;;;;;;5053846;28;20745;-77
2022/05/15 02:24:18;;;;;;;4.00;3.20;;;13.80;71.40;;;;;;5056933;28;20211;-76
2022/05/15 02:26:44;;;;;;;4.97;3.60;;;13.80;71.00;;;;;;5060477;28;20200;-76
2022/05/15 02:29:10;;;;;;;3.83;2.83;;;13.80;70.80;;;;;;5061578;28;20648;-76
2022/05/15 02:31:36;;;;;;;9.83;3.40;;;13.80;71.10;;;;;;5060661;28;20207;-76
2022/05/15 02:34:01;;;;;;;9.33;3.17;;;13.70;71.40;;;;;;5058597;28;20211;-75
2022/05/15 02:36:31;;;;;;;8.00;3.60;;;13.70;71.80;;;;;;5057135;28;20423;-76
2022/05/15 02:38:56;;;;;;;5.90;4.10;;;13.70;72.10;;;;;;5056864;28;20181;-76
2022/05/15 02:41:22;;;;;;;4.30;3.20;;;13.70;72.30;;;;;;5056947;28;20442;-77
2022/05/15 02:43:48;;;;;;;5.63;3.07;;;13.70;72.40;;;;;;5056198;28;20189;-75
2022/05/15 02:46:14;;;;;;;5.87;3.37;;;13.60;72.60;;;;;;5052154;28;20299;-77
2022/05/15 02:51:25;;;;;;;7.43;3.33;;;13.70;72.30;;;;;;5051839;28;20438;-75
2022/05/15 02:53:50;;;;;;;5.00;3.37;;;13.60;72.40;;;;;;5047673;28;20445;-75
2022/05/15 02:56:22;;;;;;;4.37;3.23;;;13.60;72.60;;;;;;5050601;28;20427;-75
2022/05/15 02:58:48;;;;;;;14.30;3.97;;;13.60;72.60;;;;;;5051081;28;20191;-76
2022/05/15 03:01:15;;;;;;;4.80;2.80;;;13.60;72.60;;;;;;5052634;28;20423;-79
2022/05/15 03:03:41;;;;;;;3.87;2.73;;;13.50;72.90;;;;;;5057745;28;20438;-77
2022/05/15 03:06:07;;;;;;;5.30;3.27;;;13.50;73.00;;;;;;5052446;28;20465;-76
2022/05/15 03:08:35;;;;;;;6.33;3.97;;;13.50;73.20;;;;;;5051011;28;20567;-76
2022/05/15 03:11:01;;;;;;;6.27;4.13;;;13.50;73.30;;;;;;5055505;28;20426;-79
2022/05/15 03:13:27;;;;;;;5.53;4.00;;;13.50;75.50;;;;;;5058290;28;20415;-76
2022/05/15 03:15:52;;;;;;;8.00;3.50;;;13.50;75.90;;;;;;5054914;28;20180;-74
2022/05/15 03:18:18;;;;;;;7.53;4.13;;;13.40;75.50;;;;;;5053512;28;20559;-74
2022/05/15 03:20:44;;;;;;;4.70;3.50;;;13.40;76.20;;;;;;5054700;28;20189;-74
2022/05/15 03:23:10;;;;;;;7.27;4.70;;;13.30;76.80;;;;;;5054932;28;20459;-75
2022/05/15 03:25:37;;;;;;;7.30;3.90;;;13.30;77.60;;;;;;5054766;28;20212;-74
2022/05/15 03:28:09;;;;;;;7.50;4.37;;;13.20;78.10;;;;;;5053670;28;20411;-77
2022/05/15 03:30:36;;;;;;;8.80;4.70;;;13.10;78.60;;;;;;5044461;28;20418;-74
2022/05/15 03:33:02;;;;;;;6.00;3.93;;;12.90;79.50;;;;;;5053256;28;20439;-77
2022/05/15 03:35:28;;;;;;;8.63;4.00;;;12.80;80.00;;;;;;5053387;28;20418;-75
2022/05/15 03:37:54;;;;;;;5.33;4.20;;;12.80;80.20;;;;;;5053399;28;20921;-77
2022/05/15 03:40:19;;;;;;;13.13;4.27;;;12.80;80.20;;;;;;5052374;28;20554;-75
2022/05/15 03:42:45;;;;;;;8.50;4.23;;;12.80;80.20;;;;;;5051732;28;20220;-75
2022/05/15 03:45:11;;;;;;;5.47;3.57;;;12.80;80.00;;;;;;5053132;28;20875;-75
2022/05/15 03:47:48;;;;;;;5.80;3.27;;;12.90;79.70;;;;;;5053708;28;20214;-74
2022/05/15 03:50:15;;;;;;;4.47;3.40;;;12.90;78.10;;;;;;5054883;28;20449;-75
2022/05/15 03:52:41;;;;;;;5.77;2.77;;;12.90;77.30;;;;;;5052378;28;20526;-74
2022/05/15 03:55:07;;;;;;;8.57;3.80;;;12.90;77.30;;;;;;5051296;28;20910;-76
2022/05/15 03:57:33;;;;;;;9.10;4.10;;;12.90;77.00;;;;;;5054300;28;20424;-76
2022/05/15 03:59:59;;;;;;;10.30;4.53;;;12.90;77.30;;;;;;5054772;28;20477;-77
2022/05/15 04:02:25;;;;;;;8.77;4.77;;;13.00;78.70;;;;;;5065122;28;20205;-77
2022/05/15 04:04:51;;;;;;;8.27;4.47;;;13.00;79.20;;;;;;5057414;28;20192;-77
2022/05/15 04:07:16;;;;;;;7.43;5.10;;;12.90;79.30;;;;;;5055425;28;20431;-76
2022/05/15 04:09:43;;;;;;;6.93;4.43;;;12.70;80.00;;;;;;5058139;28;20188;-77
2022/05/15 04:12:10;;;;;;;8.00;4.30;;;12.60;80.90;;;;;;5055417;28;20559;-77
2022/05/15 04:14:36;;;;;;;7.30;4.33;;;12.60;80.90;;;;;;5053526;28;20510;-75
2022/05/15 04:17:02;;;;;;;6.83;4.30;;;12.60;80.90;;;;;;5052697;28;20518;-77
2022/05/15 04:19:28;;;;;;;5.40;3.50;;;12.70;80.60;;;;;;5050777;28;20261;-76
2022/05/15 04:21:54;;;;;;;4.90;3.40;;;12.70;80.30;;;;;;5048307;28;20466;-76
2022/05/15 04:24:19;;;;;;;5.27;3.20;;;12.80;79.20;;;;;;5051152;28;20185;-76
2022/05/15 04:26:49;;;;;;;5.73;3.50;;;12.80;78.70;;;;;;5052617;28;21029;-75
2022/05/15 04:29:16;;;;;;;5.83;3.13;;;12.90;77.80;;;;;;5052467;28;20431;-75
2022/05/15 04:31:42;;;;;;;8.47;3.50;;;13.00;77.00;;;;;;5052889;28;20461;-74
2022/05/15 04:34:07;;;;;;;6.57;3.43;;;13.00;76.70;;;;;;5058742;28;20454;-76
2022/05/15 04:36:34;;;;;;;4.60;3.60;;;13.10;76.50;;;;;;5051661;28;20196;-76
2022/05/15 04:39:03;;;;;;;4.80;3.73;;;13.10;76.20;;;;;;5050726;28;20662;-74
2022/05/15 04:41:29;;;;;;;7.23;4.13;;;13.20;76.40;;;;;;5051048;28;20454;-74
2022/05/15 04:43:55;;;;;;;10.20;3.97;;;13.30;76.20;;;;;;5051390;28;20427;-76
2022/05/15 04:46:22;;;;;;;6.87;4.50;;;13.30;76.20;;;;;;5062056;28;20552;-75
2022/05/15 04:48:48;;;;;;;10.73;5.20;;;13.40;76.50;;;;;;5068610;28;20216;-75
2022/05/15 04:51:13;;;;;;;7.07;4.53;;;13.40;77.30;;;;;;5066008;28;20429;-74
2022/05/15 04:53:40;;;;;;;7.03;4.57;;;13.30;77.70;;;;;;5061068;28;20201;-73
2022/05/15 04:56:05;;;;;;;8.20;5.67;;;13.40;78.00;;;;;;5062524;28;20189;-75
2022/05/15 04:58:31;;;;;;;5.70;4.20;;;13.50;77.70;;;;;;5063122;28;20431;-73
2022/05/15 05:00:57;;;;;;;7.53;4.77;;;13.70;77.10;;;;;;5059979;28;20199;-74
2022/05/15 05:03:22;;;;;;;5.57;4.57;;;13.70;77.00;;;;;;5057785;28;20215;-75
2022/05/15 05:05:48;;;;;;;8.10;4.50;;;13.70;77.00;;;;;;5054457;28;20210;-74
2022/05/15 05:08:14;;;;;;;6.60;5.27;;;13.80;76.80;;;;;;5049646;28;20192;-74
2022/05/15 05:10:40;;;;;;;7.73;4.47;;;13.80;76.50;;;;;;5050438;28;20191;-73
2022/05/15 05:13:07;;;;;;;7.73;4.80;;;13.90;76.40;;;;;;5051084;28;20250;-73
2022/05/15 05:15:32;;;;;;;7.93;4.30;;;14.00;76.20;;;;;;5051357;28;20419;-74
2022/05/15 05:17:58;;;;;;;11.67;5.40;;;14.00;75.90;;;;;;5056541;28;20503;-75
2022/05/15 05:20:25;;;;;;;4.77;4.30;;;14.10;75.70;;;;;;5043793;28;20762;-76
2022/05/15 05:22:50;;;;;;;6.60;4.90;;;14.10;75.20;;;;;;5052553;28;20816;-75
2022/05/15 05:25:17;;;;;;;9.20;5.10;;;14.10;75.10;;;;;;5050733;28;20463;-74
2022/05/15 05:27:43;;;;;;;8.93;4.70;;;14.20;75.10;;;;;;5049732;28;20177;-75
2022/05/15 05:30:23;;;;;;;7.40;4.63;;;14.20;75.10;;;;;;5050299;28;20594;-74
2022/05/15 05:32:49;;;;;;;10.73;5.37;;;14.30;75.10;;;;;;5051372;28;20445;-73
2022/05/15 05:35:17;;;;;;;6.63;4.87;;;14.40;75.20;;;;;;5049883;28;20435;-75
2022/05/15 05:37:43;;;;;;;7.70;5.03;;;14.50;74.60;;;;;;5050419;28;20424;-74
2022/05/15 05:40:10;;;;;;;7.77;5.10;;;14.60;74.00;;;;;;5049649;28;20419;-74
2022/05/15 05:42:36;;;;;;;10.00;5.50;;;14.70;73.60;;;;;;5049585;28;20226;-73
2022/05/15 05:45:03;;;;;;;6.70;5.03;;;14.70;73.70;;;;;;5050196;28;20941;-74
2022/05/15 05:47:29;;;;;;;8.87;6.17;;;14.80;73.60;;;;;;5050647;28;20840;-76
2022/05/15 05:49:55;;;;;;;7.80;5.27;;;15.00;73.30;;;;;;5051010;28;20420;-76
2022/05/15 05:52:22;;;;;;;5.90;5.10;;;15.10;73.30;;;;;;5050461;28;20539;-74
2022/05/15 05:54:48;;;;;;;9.13;5.40;;;15.10;73.30;;;;;;5051043;28;20624;-73
2022/05/15 05:57:14;;;;;;;14.13;5.20;;;15.20;72.70;;;;;;5050546;28;20436;-75
2022/05/15 05:59:40;;;;;;;8.63;5.47;;;15.20;72.90;;;;;;5055795;28;20446;-75
2022/05/15 06:02:07;;;;;;;9.23;5.53;;;15.30;72.60;;;;;;5057032;28;20996;-75
2022/05/15 06:04:39;;;;;;;11.40;6.07;;;15.40;72.40;;;;;;5051994;28;20532;-75
2022/05/15 06:07:05;;;;;;;10.10;5.67;;;15.50;72.60;;;;;;5050068;28;20429;-75
2022/05/15 06:09:31;;;;;;;8.00;5.37;;;15.60;72.70;;;;;;5050008;28;20518;-75
2022/05/15 06:11:57;;;;;;;11.00;6.17;;;15.60;73.00;;;;;;5048885;28;20614;-75
2022/05/15 06:14:22;;;;;;;8.67;6.23;;;15.70;72.70;;;;;;5050321;28;20191;-74
2022/05/15 06:16:48;;;;;;;8.50;5.80;;;15.60;72.90;;;;;;5050203;28;20186;-74
2022/05/15 06:19:14;;;;;;;9.57;6.50;;;15.70;72.90;;;;;;5049607;28;20188;-74
2022/05/15 06:21:40;;;;;;;9.63;6.27;;;15.70;72.70;;;;;;5043232;28;20616;-74
2022/05/15 06:24:06;;;;;;;9.93;6.10;;;15.70;72.70;;;;;;5050944;28;20214;-76
2022/05/15 06:26:32;;;;;;;8.80;6.00;;;15.70;72.90;;;;;;5051086;28;20239;-75
2022/05/15 06:28:57;;;;;;;16.17;6.13;;;15.70;73.00;;;;;;5049325;28;20452;-76
2022/05/15 06:31:23;;;;;;;7.03;5.80;;;15.80;72.70;;;;;;5050309;28;20214;-75
2022/05/15 06:33:49;;;;;;;11.50;6.10;;;15.90;72.10;;;;;;5049983;28;20192;-74
2022/05/15 06:36:15;;;;;;;11.07;6.60;;;15.90;72.00;;;;;;5049679;28;20772;-74
2022/05/15 06:38:42;;;;;;;9.13;6.13;;;15.90;71.80;;;;;;5044177;28;20725;-74
2022/05/15 06:41:09;;;;;;;8.90;5.57;;;16.00;72.00;;;;;;5049165;28;20453;-75
2022/05/15 06:43:36;;;;;;;9.47;5.40;;;16.10;71.80;;;;;;5049966;28;20450;-75
2022/05/15 06:46:03;;;;;;;8.20;5.47;;;16.20;71.80;;;;;;5050076;28;20516;-74
2022/05/15 06:48:29;;;;;;;9.17;5.37;;;16.30;71.70;;;;;;5057595;28;20416;-76
2022/05/15 06:50:54;;;;;;;9.97;5.43;;;16.30;71.10;;;;;;5055364;28;20419;-75
2022/05/15 06:53:20;;;;;;;9.50;5.37;;;16.40;71.00;;;;;;5053851;28;20465;-75
2022/05/15 06:58:32;;;;;;;8.23;5.13;;;16.50;70.80;;;;;;5057046;28;20672;-75
2022/05/15 07:00:58;;;;;;;9.03;5.50;;;16.60;70.20;;;;;;5057437;28;20771;-74
2022/05/15 07:03:24;;;;;;;10.60;5.30;;;16.70;69.80;;;;;;5056582;28;20441;-74
2022/05/15 07:05:50;;;;;;;7.57;5.20;;;16.80;69.90;;;;;;5055596;28;20723;-75
2022/05/15 07:08:16;;;;;;;8.40;5.00;;;16.80;69.20;;;;;;5054671;28;20187;-75
2022/05/15 07:10:42;;;;;;;14.27;4.80;;;16.80;69.20;;;;;;5054894;28;20502;-77
2022/05/15 07:13:08;;;;;;;9.70;5.10;;;16.90;68.90;;;;;;5054869;28;20994;-78
2022/05/15 07:15:36;;;;;;;12.50;6.90;;;17.10;68.50;;;;;;5053584;28;20964;-75
2022/05/15 07:18:03;;;;;;;9.87;4.93;;;17.20;68.00;;;;;;5054572;28;20418;-75
2022/05/15 07:20:28;;;;;;;8.30;4.90;;;17.30;67.70;;;;;;5047334;28;20945;-76
2022/05/15 07:22:54;;;;;;;10.00;4.83;;;17.40;67.50;;;;;;5055009;28;20480;-75
2022/05/15 07:25:20;;;;;;;10.00;5.43;;;17.50;67.00;;;;;;5057289;28;20303;-76
2022/05/15 07:27:46;;;;;;;7.83;4.87;;;17.60;66.90;;;;;;5055314;28;20603;-76
2022/05/15 07:30:13;;;;;;;10.13;5.57;;;17.70;67.00;;;;;;5052793;28;20502;-75
2022/05/15 07:32:39;;;;;;;9.10;4.90;;;17.80;66.10;;;;;;5055289;28;20238;-75
2022/05/15 07:35:05;;;;;;;6.00;4.20;;;17.90;65.70;;;;;;5057164;28;20428;-75
2022/05/15 07:37:31;;;;;;;8.30;4.60;;;18.10;65.40;;;;;;5053715;28;20956;-75
2022/05/15 07:39:57;;;;;;;7.93;4.67;;;18.20;64.80;;;;;;5052135;28;20419;-74
2022/05/15 07:42:23;;;;;;;5.70;4.23;;;18.20;64.70;;;;;;5051438;28;20212;-76
2022/05/15 07:44:48;;;;;;;7.77;4.40;;;18.30;64.50;;;;;;5054404;28;20178;-74
2022/05/15 07:47:14;;;;;;;11.70;4.57;;;18.40;64.50;;;;;;5054644;28;20591;-74
2022/05/15 07:49:40;;;;;;;8.43;4.40;;;18.50;63.90;;;;;;5056884;28;20187;-76
2022/05/15 07:52:07;;;;;;;7.83;4.17;;;18.50;63.50;;;;;;5057012;28;20198;-74
2022/05/15 07:54:33;;;;;;;6.27;4.20;;;18.50;63.80;;;;;;5056912;28;20535;-74
2022/05/15 07:57:00;;;;;;;8.73;3.70;;;18.70;61.70;;;;;;5054954;28;20478;-76
2022/05/15 07:59:28;;;;;;;5.77;4.23;;;18.80;61.90;;;;;;5045240;28;20454;-76
2022/05/15 08:01:55;;;;;;;5.63;3.40;;;18.90;61.20;;;;;;5053206;28;20510;-76
2022/05/15 08:04:21;;;;;;;4.60;3.70;;;19.00;61.00;;;;;;5054149;28;20438;-77
2022/05/15 08:09:31;;;;;;;8.40;3.40;;;19.30;59.70;;;;;;5050541;28;20424;-77
2022/05/15 08:11:57;;;;;;;5.87;3.13;;;19.40;60.00;;;;;;5054976;28;20441;-78
2022/05/15 08:14:23;;;;;;;4.90;3.53;;;19.40;59.50;;;;;;5055967;28;20203;-76
2022/05/15 08:16:49;;;;;;;7.30;3.50;;;19.60;58.90;;;;;;5054586;28;20189;-76
2022/05/15 08:24:45;;;;;;;5.40;3.40;;;20.00;57.70;;;;;;5049894;28;20433;-77
2022/05/15 08:27:10;;;;;;;7.40;3.93;;;20.20;57.30;;;;;;5051499;28;20427;-77
2022/05/15 08:29:37;;;;;;;9.03;3.10;;;20.20;57.30;;;;;;5052171;28;20418;-79
2022/05/15 08:32:04;;;;;;;7.17;3.63;;;20.30;57.00;;;;;;5053395;28;20246;-78
2022/05/15 08:34:30;;;;;;;5.57;3.50;;;20.50;57.20;;;;;;5053622;28;20430;-77
2022/05/15 08:36:56;;;;;;;6.40;3.57;;;20.60;57.00;;;;;;5055122;28;20420;-74
2022/05/15 08:39:22;;;;;;;11.60;3.67;;;20.70;56.20;;;;;;5054691;28;20253;-76
2022/05/15 08:41:51;;;;;;;5.57;3.30;;;20.80;55.70;;;;;;5051484;28;20321;-77
2022/05/15 08:44:22;;;;;;;5.20;3.40;;;20.80;55.70;;;;;;5052005;28;20447;-77
2022/05/15 08:46:54;;;;;;;7.83;3.60;;;20.90;55.40;;;;;;5057059;28;20470;-77
2022/05/15 08:49:20;;;;;;;5.60;3.30;;;21.10;55.60;;;;;;5055800;28;20493;-77
2022/05/15 08:51:56;;;;;;;6.50;3.40;;;21.10;55.80;;;;;;5058129;28;20490;-78
2022/05/15 08:54:22;;;;;;;4.80;3.57;;;21.30;55.20;;;;;;5056747;28;20289;-76
2022/05/15 08:56:51;;;;;;;5.27;3.30;;;21.30;55.20;;;;;;5052490;28;20421;-73
2022/05/15 08:59:25;;;;;;;9.37;4.07;;;21.40;54.60;;;;;;5057533;28;20421;-71
2022/05/15 09:01:54;;;;;;;7.93;3.67;;;21.50;55.00;;;;;;5058745;28;20441;-72
2022/05/15 09:04:21;;;;;;;11.00;4.83;;;21.50;54.50;;;;;;5050799;28;20440;-71
2022/05/15 09:07:09;;;;;;;28.23;14.80;;;21.40;54.60;;;;;;5056636;28;20839;-73
2022/05/15 09:09:54;;;;;;;14.67;8.10;;;21.50;54.80;;;;;;5053788;28;20433;-73
2022/05/15 09:12:23;;;;;;;17.80;9.13;;;21.60;54.90;;;;;;5032934;28;20464;-71
2022/05/15 09:14:59;;;;;;;16.37;8.73;;;21.80;54.60;;;;;;5048759;28;20506;-71
2022/05/15 09:17:48;;;;;;;8.90;6.47;;;21.90;54.40;;;;;;5044882;28;20436;-76
2022/05/15 09:20:20;;;;;;;11.10;5.57;;;22.00;54.10;;;;;;5046175;28;20445;-74
2022/05/15 09:23:13;;;;;;;7.73;5.03;;;22.10;53.60;;;;;;5044365;28;20464;-76
2022/05/15 09:25:38;;;;;;;6.63;4.40;;;22.10;53.60;;;;;;5052536;28;21166;-77
2022/05/15 09:28:04;;;;;;;8.90;4.20;;;22.20;53.00;;;;;;5048580;28;20538;-76
2022/05/15 09:30:35;;;;;;;10.50;4.33;;;22.40;52.40;;;;;;5049229;28;20524;-76
2022/05/15 09:33:01;;;;;;;6.67;3.63;;;22.50;51.70;;;;;;5050240;28;20203;-76
2022/05/15 09:35:38;;;;;;;4.97;3.30;;;22.50;51.70;;;;;;5050007;28;20426;-75
2022/05/15 09:43:49;;;;;;;5.87;3.50;;;22.70;50.90;;;;;;5052199;28;20442;-74
2022/05/15 09:46:18;;;;;;;33.83;17.70;;;22.90;51.00;;;;;;5048253;28;20464;-73
2022/05/15 09:49:11;;;;;;;13.73;4.57;;;23.00;50.60;;;;;;5047434;28;20553;-72
2022/05/15 09:51:50;;;;;;;6.47;4.00;;;23.10;49.80;;;;;;5048816;28;20433;-75
2022/05/15 09:54:36;;;;;;;9.57;4.20;;;23.10;48.90;;;;;;5045361;28;20977;-75
2022/05/15 09:57:09;;;;;;;8.23;4.50;;;23.20;48.90;;;;;;5048509;28;20544;-74
2022/05/15 09:59:35;;;;;;;6.10;3.63;;;23.50;47.90;;;;;;5041711;28;20525;-74
2022/05/15 10:02:01;;;;;;;4.40;3.00;;;23.60;48.20;;;;;;5048612;28;20448;-71
2022/05/15 10:04:37;;;;;;;5.63;3.17;;;23.80;47.90;;;;;;5051555;28;20421;-82
2022/05/15 10:07:07;;;;;;;4.97;2.87;;;24.00;47.80;;;;;;5049627;28;20291;-73
2022/05/15 10:09:35;;;;;;;5.67;3.00;;;24.30;47.00;;;;;;5048934;28;20518;-79
2022/05/15 10:12:27;;;;;;;5.63;3.53;;;24.50;46.50;;;;;;5049689;28;21125;-76
2022/05/15 10:15:07;;;;;;;7.33;3.27;;;24.80;46.10;;;;;;5050587;28;20860;-77
2022/05/15 10:17:34;;;;;;;7.00;3.03;;;25.20;45.10;;;;;;5043371;28;20522;-77
2022/05/15 10:20:14;;;;;;;7.17;4.17;;;25.10;44.70;;;;;;5051653;28;20462;-77
2022/05/15 10:22:52;;;;;;;7.30;3.23;;;25.10;44.90;;;;;;5049345;28;20444;-72
2022/05/15 10:25:55;;;;;;;41.03;20.10;;;24.90;45.00;;;;;;5047070;28;20464;-73
2022/05/15 10:28:42;;;;;;;23.53;13.20;;;25.10;45.30;;;;;;5047635;28;20446;-73
2022/05/15 10:31:31;;;;;;;7.67;3.63;;;25.60;44.70;;;;;;5049568;28;20426;-73
2022/05/15 10:34:03;;;;;;;7.63;5.63;;;25.80;43.50;;;;;;5044790;28;20429;-76
2022/05/15 10:36:47;;;;;;;6.97;3.57;;;25.80;43.00;;;;;;5050404;28;20444;-77
2022/05/15 10:39:37;;;;;;;8.07;4.50;;;25.90;44.10;;;;;;5052029;28;20426;-75
2022/05/15 10:42:27;;;;;;;6.47;3.70;;;26.30;44.10;;;;;;5049799;28;21011;-77
2022/05/15 10:45:19;;;;;;;6.47;3.60;;;26.70;41.50;;;;;;5043176;28;20444;-78
2022/05/15 10:48:06;;;;;;;13.97;4.70;;;27.00;41.60;;;;;;5049744;28;20414;-79
2022/05/15 10:50:50;;;;;;;10.13;4.73;;;26.90;40.30;;;;;;5049080;28;20416;-74
2022/05/15 10:59:33;;;;;;;6.63;3.80;;;27.00;41.40;;;;;;5048398;28;20416;-72
2022/05/15 11:02:37;;;;;;;7.30;3.77;;;27.50;40.00;;;;;;5047742;28;20457;-71
2022/05/15 11:05:13;;;;;;;5.97;3.53;;;27.60;37.60;;;;;;5047301;28;20434;-72
2022/05/15 11:07:57;;;;;;;6.60;3.20;;;27.40;38.30;;;;;;5041097;28;20468;-72
2022/05/15 11:10:43;;;;;;;6.17;2.87;;;27.10;37.80;;;;;;5047169;28;20957;-70
2022/05/15 11:13:23;;;;;;;9.10;3.40;;;27.00;38.40;;;;;;5048011;28;20445;-72
2022/05/15 11:16:04;;;;;;;3.77;2.90;;;27.20;38.30;;;;;;5040926;28;20492;-73
2022/05/15 11:19:04;;;;;;;4.57;3.40;;;27.40;38.20;;;;;;5047024;28;20522;-77
2022/05/15 11:21:39;;;;;;;5.50;3.00;;;27.30;39.60;;;;;;5047613;28;20964;-74
2022/05/15 11:24:27;;;;;;;6.50;3.60;;;27.60;39.00;;;;;;5048153;28;20539;-75
2022/05/15 11:27:00;;;;;;;10.10;3.00;;;27.70;38.30;;;;;;5048492;28;20470;-73
2022/05/15 11:29:27;;;;;;;7.80;2.97;;;28.10;39.20;;;;;;5049509;28;20439;-74
2022/05/15 11:31:56;;;;;;;5.63;3.30;;;28.00;37.10;;;;;;5048147;28;20446;-75
2022/05/15 11:35:00;;;;;;;6.03;3.50;;;28.00;37.00;;;;;;5051674;28;20455;-77
2022/05/15 11:37:38;;;;;;;4.40;3.33;;;27.80;36.80;;;;;;5044625;28;20423;-73
2022/05/15 11:40:10;;;;;;;3.87;2.90;;;27.70;37.20;;;;;;5048041;28;20847;-71
2022/05/15 11:42:35;;;;;;;4.30;3.10;;;27.80;36.80;;;;;;5051003;28;20439;-75
2022/05/15 11:45:38;;;;;;;6.60;3.33;;;27.90;36.60;;;;;;5049676;28;20411;-74
2022/05/15 11:48:25;;;;;;;5.67;3.37;;;27.60;37.00;;;;;;5051499;28;20562;-74
2022/05/15 11:50:57;;;;;;;7.47;3.30;;;27.60;37.50;;;;;;5051623;28;20887;-73
2022/05/15 11:53:31;;;;;;;4.47;2.90;;;27.70;36.70;;;;;;5051101;28;20454;-72
2022/05/15 11:55:59;;;;;;;5.93;3.40;;;28.00;37.90;;;;;;5051468;28;20422;-72
2022/05/15 11:58:36;;;;;;;9.23;3.03;;;28.20;35.50;;;;;;5051888;28;20438;-74
2022/05/15 12:01:13;;;;;;;4.77;3.20;;;28.40;34.00;;;;;;5049030;28;20419;-72
2022/05/15 12:03:39;;;;;;;6.37;3.47;;;28.40;35.10;;;;;;5052361;28;20900;-72
2022/05/15 12:06:09;;;;;;;5.43;3.63;;;28.40;34.80;;;;;;5051498;28;20487;-72
2022/05/15 12:08:37;;;;;;;3.90;2.80;;;28.50;34.80;;;;;;5054435;28;20184;-72
2022/05/15 12:11:18;;;;;;;9.10;3.80;;;28.50;34.30;;;;;;5052794;28;20422;-71
2022/05/15 12:13:46;;;;;;;3.67;3.37;;;28.50;34.10;;;;;;5053634;28;20527;-72
2022/05/15 12:16:20;;;;;;;5.40;3.20;;;28.20;34.90;;;;;;5052995;28;20434;-70
2022/05/15 12:18:58;;;;;;;4.90;3.30;;;28.30;33.90;;;;;;5050304;28;20458;-73
2022/05/15 12:21:38;;;;;;;3.73;3.00;;;28.10;34.30;;;;;;5050046;28;20573;-73
2022/05/15 12:27:03;;;;;;;7.57;3.50;;;28.70;34.00;;;;;;5049229;28;21022;-72
2022/05/15 12:30:03;;;;;;;5.00;3.50;;;29.10;34.10;;;;;;5048297;28;20984;-71
2022/05/15 12:32:39;;;;;;;3.83;3.40;;;29.30;32.90;;;;;;5049687;28;20450;-72
2022/05/15 12:35:27;;;;;;;4.63;2.90;;;29.50;32.10;;;;;;5045890;28;20430;-72
2022/05/15 12:38:02;;;;;;;114.60;72.57;;;29.40;32.70;;;;;;5040998;28;20434;-72
2022/05/15 12:40:31;;;;;;;7.90;3.23;;;29.80;32.70;;;;;;5042747;28;20429;-72
2022/05/15 12:42:58;;;;;;;5.60;3.03;;;29.80;31.50;;;;;;5048923;28;20980;-74
2022/05/15 12:45:25;;;;;;;4.63;3.00;;;29.90;32.40;;;;;;5048831;28;20463;-72
2022/05/15 12:48:11;;;;;;;9.93;3.47;;;29.80;31.50;;;;;;5049244;28;20426;-72
2022/05/15 12:50:56;;;;;;;6.30;3.03;;;29.90;32.00;;;;;;5049110;28;21274;-73
2022/05/15 12:53:27;;;;;;;4.00;3.17;;;30.20;31.30;;;;;;5049072;28;20553;-73
2022/05/15 12:56:06;;;;;;;8.93;3.40;;;30.30;30.90;;;;;;5048593;28;20477;-72
2022/05/15 12:58:33;;;;;;;3.40;2.77;;;30.30;30.80;;;;;;5041331;28;20415;-74
2022/05/15 13:01:00;;;;;;;4.00;2.57;;;30.40;31.30;;;;;;5048345;28;20416;-73
2022/05/15 13:03:27;;;;;;;4.27;2.90;;;30.60;30.90;;;;;;5041757;28;20446;-73
2022/05/15 13:05:52;;;;;;;4.10;3.33;;;30.90;30.10;;;;;;5050681;28;20551;-74
2022/05/15 13:08:18;;;;;;;6.17;3.40;;;31.20;29.40;;;;;;5051315;28;20501;-73
2022/05/15 13:10:51;;;;;;;6.50;3.50;;;31.30;29.20;;;;;;5048652;28;20645;-72
2022/05/15 13:13:24;;;;;;;6.60;3.00;;;31.10;29.40;;;;;;5048980;28;20211;-72
2022/05/15 13:15:53;;;;;;;5.43;3.20;;;30.40;29.40;;;;;;5047704;28;20423;-72
2022/05/15 13:18:23;;;;;;;6.83;4.07;;;30.40;29.80;;;;;;5048815;28;20430;-76
2022/05/15 13:20:59;;;;;;;5.77;3.50;;;30.70;30.30;;;;;;5049096;28;20423;-75
2022/05/15 13:23:31;;;;;;;5.40;3.57;;;31.20;29.70;;;;;;5051606;28;20513;-79
2022/05/15 13:25:59;;;;;;;3.50;2.90;;;31.40;28.60;;;;;;5052426;28;20462;-76
2022/05/15 13:28:25;;;;;;;7.20;3.50;;;30.80;29.10;;;;;;5053881;28;20427;-78